createdAt,value
2023-05-02T00:02:11.668Z,100053.00
2023-05-02T00:04:39.639Z,100049.59
2023-05-02T00:07:07.147Z,100047.25
2023-05-02T00:09:34.710Z,100045.38
2023-05-02T00:12:02.646Z,100039.66
2023-05-02T00:14:30.241Z,100047.38
2023-05-02T00:16:57.754Z,100049.56
2023-05-02T00:19:25.386Z,100045.06
2023-05-02T00:21:53.372Z,100047.84
2023-05-02T00:24:21.142Z,100046.16
2023-05-02T00:26:48.638Z,100052.06
2023-05-02T00:29:16.189Z,100044.63
2023-05-02T00:31:43.681Z,100054.22
2023-05-02T00:34:11.700Z,100051.88
2023-05-02T00:36:39.206Z,100048.78
2023-05-02T00:39:06.669Z,100056.53
2023-05-02T00:41:34.314Z,100062.91
2023-05-02T00:44:02.130Z,100054.38
2023-05-02T00:46:30.710Z,100063.97
2023-05-02T00:48:58.426Z,100068.16
2023-05-02T00:51:27.356Z,100065.06
2023-05-02T00:53:55.146Z,100064.25
2023-05-02T00:56:22.662Z,100059.75
2023-05-02T00:58:50.541Z,100067.50
2023-05-02T01:01:59.924Z,100063.63
2023-05-02T01:04:45.092Z,100071.66
2023-05-02T01:08:10.530Z,100074.63
2023-05-02T01:11:17.107Z,100079.56
2023-05-02T01:13:45.879Z,100076.47
2023-05-02T01:16:17.096Z,100074.56
2023-05-02T01:18:45.463Z,100076.78
2023-05-02T01:21:13.432Z,100077.97
2023-05-02T01:23:52.912Z,100080.09
2023-05-02T01:26:52.316Z,100074.84
2023-05-02T01:29:22.205Z,100075.63
2023-05-02T01:31:51.522Z,100079.50
2023-05-02T01:34:21.557Z,100083.03
2023-05-02T01:36:51.838Z,100074.97
2023-05-02T01:39:24.595Z,100079.63
2023-05-02T01:41:57.100Z,100077.72
2023-05-02T01:44:26.408Z,100082.19
2023-05-02T01:46:56.298Z,100080.31
2023-05-02T01:49:26.155Z,100081.34
2023-05-02T01:51:54.027Z,100080.44
2023-05-02T01:54:24.073Z,100078.75
2023-05-02T01:56:53.054Z,100083.56
2023-05-02T01:59:24.782Z,100078.28
2023-05-02T02:01:53.488Z,100088.19
2023-05-02T02:04:23.220Z,100084.97
2023-05-02T02:06:58.311Z,100088.72
2023-05-02T02:09:26.299Z,100081.84
2023-05-02T02:12:06.241Z,100086.69
2023-05-02T02:14:46.772Z,100084.50
2023-05-02T02:17:32.732Z,100091.59
2023-05-02T02:20:05.690Z,100086.03
2023-05-02T02:22:38.901Z,100083.47
2023-05-02T02:25:11.686Z,100092.00
2023-05-02T02:27:41.126Z,100093.38
2023-05-02T02:30:10.627Z,100099.34
2023-05-02T02:32:38.798Z,100089.69
2023-05-02T02:35:08.059Z,100096.25
2023-05-02T02:37:58.445Z,100083.47
2023-05-02T02:40:43.716Z,100089.47
2023-05-02T02:43:32.673Z,100093.97
2023-05-02T02:46:21.318Z,100089.97
2023-05-02T02:49:23.490Z,100097.13
2023-05-02T02:52:07.977Z,100092.88
2023-05-02T02:54:58.740Z,100081.69
2023-05-02T02:57:54.270Z,100088.41
2023-05-02T03:00:26.079Z,100094.91
2023-05-02T03:02:55.033Z,100104.94
2023-05-02T03:05:23.942Z,100109.88
2023-05-02T03:07:53.377Z,100113.06
2023-05-02T03:10:23.889Z,100119.50
2023-05-02T03:12:55.583Z,100117.41
2023-05-02T03:15:52.002Z,100122.09
2023-05-02T03:18:23.539Z,100120.50
2023-05-02T03:20:51.548Z,100120.69
2023-05-02T03:23:19.270Z,100118.53
2023-05-02T03:25:47.111Z,100125.13
2023-05-02T03:28:20.169Z,100128.44
2023-05-02T03:30:49.771Z,100131.16
2023-05-02T03:33:17.467Z,100132.53
2023-05-02T03:35:46.988Z,100142.22
2023-05-02T03:38:14.947Z,100143.13
2023-05-02T03:40:44.399Z,100151.72
2023-05-02T03:43:12.664Z,100150.75
2023-05-02T03:45:41.099Z,100162.31
2023-05-02T03:48:09.855Z,100160.41
2023-05-02T03:50:38.594Z,100158.84
2023-05-02T03:53:08.315Z,100157.69
2023-05-02T03:55:47.463Z,100159.91
2023-05-02T03:58:23.243Z,100171.22
2023-05-02T04:00:52.864Z,100167.16
2023-05-02T04:03:21.631Z,100176.53
2023-05-02T04:05:51.594Z,100177.00
2023-05-02T04:08:19.726Z,100181.69
2023-05-02T04:10:47.899Z,100178.00
2023-05-02T04:13:15.447Z,100176.69
2023-05-02T04:15:48.086Z,100180.91
2023-05-02T04:18:19.651Z,100179.91
2023-05-02T04:20:48.286Z,100179.22
2023-05-02T04:23:18.055Z,100178.06
2023-05-02T04:25:55.160Z,100185.06
2023-05-02T04:28:27.564Z,100189.34
2023-05-02T04:30:56.209Z,100187.34
2023-05-02T04:33:25.107Z,100203.78
2023-05-02T04:35:54.627Z,100208.06
2023-05-02T04:38:23.865Z,100204.50
2023-05-02T04:40:52.617Z,100194.19
2023-05-02T04:43:26.239Z,100194.78
2023-05-02T04:46:01.650Z,100202.38
2023-05-02T04:48:34.047Z,100195.56
2023-05-02T04:51:01.548Z,100205.78
2023-05-02T04:53:30.789Z,100204.59
2023-05-02T04:55:58.479Z,100201.94
2023-05-02T04:58:27.336Z,100203.28
2023-05-02T05:01:00.195Z,100201.91
2023-05-02T05:03:30.034Z,100203.19
2023-05-02T05:05:59.227Z,100211.09
2023-05-02T05:08:28.061Z,100210.38
2023-05-02T05:10:56.184Z,100210.50
2023-05-02T05:13:24.665Z,100215.75
2023-05-02T05:15:52.833Z,100219.06
2023-05-02T05:18:23.951Z,100221.38
2023-05-02T05:20:51.466Z,100214.97
2023-05-02T05:23:19.009Z,100217.75
2023-05-02T05:25:46.674Z,100224.81
2023-05-02T05:28:18.628Z,100223.53
2023-05-02T05:30:46.664Z,100227.75
2023-05-02T05:33:18.191Z,100226.00
2023-05-02T05:35:48.177Z,100223.69
2023-05-02T05:38:15.715Z,100219.69
2023-05-02T05:40:45.508Z,100232.69
2023-05-02T05:43:13.333Z,100230.19
2023-05-02T05:45:40.876Z,100231.41
2023-05-02T05:48:08.524Z,100235.31
2023-05-02T05:50:41.894Z,100234.31
2023-05-02T05:53:09.388Z,100237.78
2023-05-02T05:55:40.789Z,100240.34
2023-05-02T05:58:09.961Z,100245.28
2023-05-02T06:00:40.319Z,100248.22
2023-05-02T06:03:09.819Z,100251.16
2023-05-02T06:05:39.252Z,100251.34
2023-05-02T06:08:07.995Z,100245.72
2023-05-02T06:10:35.652Z,100255.34
2023-05-02T06:13:03.766Z,100259.75
2023-05-02T06:15:35.662Z,100256.50
2023-05-02T06:18:05.560Z,100245.00
2023-05-02T06:20:33.214Z,100245.69
2023-05-02T06:23:00.712Z,100255.22
2023-05-02T06:25:28.254Z,100250.00
2023-05-02T06:27:55.824Z,100248.56
2023-05-02T06:30:23.357Z,100246.91
2023-05-02T06:32:50.883Z,100235.13
2023-05-02T06:35:18.490Z,100241.97
2023-05-02T06:37:45.977Z,100242.94
2023-05-02T06:40:13.881Z,100242.06
2023-05-02T06:42:41.417Z,100242.28
2023-05-02T06:45:09.138Z,100234.31
2023-05-02T06:47:36.622Z,100240.13
2023-05-02T06:50:04.380Z,100236.97
2023-05-02T06:52:31.832Z,100238.88
2023-05-02T06:54:59.285Z,100233.50
2023-05-02T06:57:26.960Z,100230.50
2023-05-02T06:59:54.487Z,100229.03
2023-05-02T07:02:22.361Z,100232.03
2023-05-02T07:04:49.970Z,100238.63
2023-05-02T07:07:18.988Z,100236.41
2023-05-02T07:09:48.899Z,100242.22
2023-05-02T07:12:16.389Z,100240.00
2023-05-02T07:14:44.460Z,100240.88
2023-05-02T07:17:11.917Z,100242.97
2023-05-02T07:19:39.466Z,100238.22
2023-05-02T07:22:07.368Z,100239.03
2023-05-02T07:24:35.096Z,100243.94
2023-05-02T07:27:03.360Z,100241.69
2023-05-02T07:29:30.817Z,100226.91
2023-05-02T07:31:58.357Z,100242.81
2023-05-02T07:34:25.813Z,100234.16
2023-05-02T07:36:53.318Z,100246.91
2023-05-02T07:39:20.896Z,100244.09
2023-05-02T07:41:51.206Z,100241.47
2023-05-02T07:44:18.668Z,100240.91
2023-05-02T07:46:46.296Z,100242.72
2023-05-02T07:49:14.769Z,100244.22
2023-05-02T07:51:42.640Z,100242.22
2023-05-02T07:54:36.187Z,100248.75
2023-05-02T07:57:05.237Z,100241.56
2023-05-02T07:59:32.687Z,100243.59
2023-05-02T08:02:00.455Z,100248.22
2023-05-02T08:04:28.804Z,100244.66
2023-05-02T08:06:56.664Z,100255.56
2023-05-02T08:09:24.267Z,100246.47
2023-05-02T08:11:51.838Z,100246.66
2023-05-02T08:14:19.388Z,100246.63
2023-05-02T08:16:46.931Z,100249.94
2023-05-02T08:19:15.284Z,100239.34
2023-05-02T08:21:43.687Z,100242.97
2023-05-02T08:24:11.275Z,100244.84
2023-05-02T08:26:38.751Z,100252.16
2023-05-02T08:29:06.243Z,100243.91
2023-05-02T08:31:34.140Z,100246.59
2023-05-02T08:34:01.668Z,100240.97
2023-05-02T08:36:29.258Z,100241.66
2023-05-02T08:38:56.842Z,100237.31
2023-05-02T08:41:24.968Z,100243.69
2023-05-02T08:43:53.577Z,100236.81
2023-05-02T08:46:24.621Z,100229.38
2023-05-02T08:48:53.407Z,100223.44
2023-05-02T08:51:24.088Z,100228.19
2023-05-02T08:53:53.379Z,100232.19
2023-05-02T08:56:21.855Z,100221.13
2023-05-02T08:58:49.323Z,100219.63
2023-05-02T09:01:19.508Z,100220.06
2023-05-02T09:03:48.697Z,100220.69
2023-05-02T09:06:19.315Z,100217.03
2023-05-02T09:08:50.821Z,100218.25
2023-05-02T09:11:19.110Z,100217.31
2023-05-02T09:13:51.832Z,100206.66
2023-05-02T09:16:25.805Z,100210.97
2023-05-02T09:18:58.661Z,100202.00
2023-05-02T09:21:37.393Z,100208.84
2023-05-02T09:24:21.509Z,100206.50
2023-05-02T09:27:03.217Z,100189.88
2023-05-02T09:29:37.915Z,100193.31
2023-05-02T09:32:08.309Z,100198.63
2023-05-02T09:34:38.982Z,100186.34
2023-05-02T09:37:06.655Z,100195.56
2023-05-02T09:39:34.150Z,100183.63
2023-05-02T09:42:03.550Z,100180.78
2023-05-02T09:44:39.337Z,100179.22
2023-05-02T09:47:09.315Z,100174.06
2023-05-02T09:49:47.145Z,100171.38
2023-05-02T09:52:21.715Z,100174.88
2023-05-02T09:54:53.353Z,100164.53
2023-05-02T09:57:21.996Z,100169.28
2023-05-02T09:59:57.836Z,100164.00
2023-05-02T10:02:26.566Z,100172.22
2023-05-02T10:04:59.012Z,100165.94
2023-05-02T10:07:27.215Z,100163.63
2023-05-02T10:09:56.711Z,100156.13
2023-05-02T10:12:27.384Z,100161.84
2023-05-02T10:15:04.445Z,100161.81
2023-05-02T10:20:08.593Z,100150.97
2023-05-02T10:22:36.985Z,100156.34
2023-05-02T10:25:08.038Z,100149.50
2023-05-02T10:27:35.696Z,100140.34
2023-05-02T10:30:04.720Z,100147.59
2023-05-02T10:32:34.875Z,100142.63
2023-05-02T10:35:08.384Z,100142.22
2023-05-02T10:37:40.275Z,100136.19
2023-05-02T10:40:12.654Z,100141.22
2023-05-02T10:42:45.913Z,100132.41
2023-05-02T10:45:33.998Z,100129.75
2023-05-02T10:48:22.333Z,100131.75
2023-05-02T10:51:03.814Z,100123.72
2023-05-02T10:53:40.397Z,100115.66
2023-05-02T10:56:26.474Z,100120.66
2023-05-02T10:59:28.776Z,100113.78
2023-05-02T11:01:57.983Z,100110.69
2023-05-02T11:04:25.752Z,100107.63
2023-05-02T11:07:02.343Z,100104.56
2023-05-02T11:09:29.706Z,100114.16
2023-05-02T11:11:57.590Z,100109.91
2023-05-02T11:14:29.263Z,100113.38
2023-05-02T11:17:05.555Z,100112.13
2023-05-02T11:19:39.071Z,100099.09
2023-05-02T11:22:21.910Z,100095.56
2023-05-02T11:24:51.122Z,100112.88
2023-05-02T11:27:31.306Z,100092.91
2023-05-02T11:30:17.115Z,100095.25
2023-05-02T11:32:45.514Z,100094.56
2023-05-02T11:35:27.932Z,100090.69
2023-05-02T11:38:03.773Z,100080.63
2023-05-02T11:40:32.595Z,100078.97
2023-05-02T11:43:04.408Z,100079.44
2023-05-02T11:45:36.506Z,100075.00
2023-05-02T11:48:07.950Z,100067.38
2023-05-02T11:50:49.674Z,100076.13
2023-05-02T11:53:25.040Z,100055.41
2023-05-02T11:56:02.392Z,100055.34
2023-05-02T11:59:00.012Z,100045.81
2023-05-02T12:01:28.397Z,100036.28
2023-05-02T12:04:08.265Z,100037.13
2023-05-02T12:06:36.489Z,100044.03
2023-05-02T12:09:16.510Z,100035.97
2023-05-02T12:11:44.473Z,100043.63
2023-05-02T12:14:12.051Z,100039.81
2023-05-02T12:16:39.670Z,100035.22
2023-05-02T12:19:07.693Z,100030.09
2023-05-02T12:21:35.919Z,100042.28
2023-05-02T12:24:04.376Z,100034.25
2023-05-02T12:26:33.171Z,100020.41
2023-05-02T12:29:02.781Z,100022.66
2023-05-02T12:31:32.314Z,100023.94
2023-05-02T12:34:01.343Z,100028.34
2023-05-02T12:36:29.914Z,100016.44
2023-05-02T12:38:59.850Z,100012.66
2023-05-02T12:41:39.618Z,99997.94
2023-05-02T12:44:07.926Z,100001.88
2023-05-02T12:46:38.865Z,99991.91
2023-05-02T12:49:09.501Z,99985.03
2023-05-02T12:51:38.709Z,99967.63
2023-05-02T12:54:07.111Z,99969.16
2023-05-02T12:56:43.740Z,99963.06
2023-05-02T12:59:30.809Z,99962.44
2023-05-02T13:02:00.617Z,99963.53
2023-05-02T13:04:42.188Z,99947.31
2023-05-02T13:07:11.255Z,99954.66
2023-05-02T13:09:38.944Z,99951.97
2023-05-02T13:12:06.830Z,99946.91
2023-05-02T13:14:34.432Z,99952.97
2023-05-02T13:17:02.071Z,99952.91
2023-05-02T13:19:31.511Z,99945.91
2023-05-02T13:21:59.339Z,99957.16
2023-05-02T13:24:26.932Z,99947.72
2023-05-02T13:26:54.316Z,99946.97
2023-05-02T13:29:21.842Z,99943.81
2023-05-02T13:31:49.247Z,99951.19
2023-05-02T13:34:16.772Z,99942.88
2023-05-02T13:36:46.359Z,99950.47
2023-05-02T13:39:14.483Z,99950.78
2023-05-02T13:41:42.009Z,99953.28
2023-05-02T13:44:10.025Z,99953.72
2023-05-02T13:46:38.507Z,99961.69
2023-05-02T13:49:06.531Z,99952.50
2023-05-02T13:51:34.099Z,99943.81
2023-05-02T13:54:02.478Z,99942.31
2023-05-02T13:56:30.039Z,99936.94
2023-05-02T13:58:57.760Z,99936.16
2023-05-02T14:01:28.231Z,99936.16
2023-05-02T14:03:56.009Z,99929.28
2023-05-02T14:06:23.791Z,99923.34
2023-05-02T14:08:52.903Z,99920.66
2023-05-02T14:11:20.356Z,99927.22
2023-05-02T14:13:48.085Z,99924.19
2023-05-02T14:16:17.086Z,99918.34
2023-05-02T14:18:45.720Z,99933.16
2023-05-02T14:21:13.255Z,99924.69
2023-05-02T14:23:40.688Z,99930.09
2023-05-02T14:26:08.247Z,99940.19
2023-05-02T14:28:38.449Z,99930.59
2023-05-02T14:31:07.927Z,99931.75
2023-05-02T14:33:35.668Z,99922.28
2023-05-02T14:36:03.878Z,99928.72
2023-05-02T14:38:38.872Z,99930.53
2023-05-02T14:41:07.036Z,99935.06
2023-05-02T14:43:37.204Z,99929.72
2023-05-02T14:46:08.076Z,99925.47
2023-05-02T14:48:36.170Z,99920.75
2023-05-02T14:51:07.520Z,99929.19
2023-05-02T14:53:39.465Z,99930.13
2023-05-02T14:56:14.070Z,99937.16
2023-05-02T14:58:42.040Z,99920.41
2023-05-02T15:01:19.964Z,99918.53
2023-05-02T15:04:05.206Z,99916.59
2023-05-02T15:06:34.923Z,99918.47
2023-05-02T15:09:05.163Z,99915.81
2023-05-02T15:11:33.105Z,99912.34
2023-05-02T15:14:00.941Z,99908.84
2023-05-02T15:16:29.040Z,99912.72
2023-05-02T15:18:56.568Z,99913.94
2023-05-02T15:21:26.959Z,99913.13
2023-05-02T15:23:54.509Z,99908.91
2023-05-02T15:26:23.233Z,99913.63
2023-05-02T15:28:50.766Z,99918.69
2023-05-02T15:31:18.385Z,99913.75
2023-05-02T15:33:45.969Z,99893.94
2023-05-02T15:36:14.289Z,99906.97
2023-05-02T15:38:43.094Z,99903.94
2023-05-02T15:41:13.676Z,99899.34
2023-05-02T15:43:41.236Z,99904.72
2023-05-02T15:46:08.890Z,99907.41
2023-05-02T15:48:36.529Z,99891.69
2023-05-02T15:51:05.650Z,99897.44
2023-05-02T15:53:34.905Z,99904.34
2023-05-02T15:56:02.438Z,99900.13
2023-05-02T15:58:30.113Z,99900.84
2023-05-02T16:00:57.870Z,99896.97
2023-05-02T16:03:25.491Z,99899.59
2023-05-02T16:05:58.036Z,99895.00
2023-05-02T16:08:27.165Z,99894.59
2023-05-02T16:10:56.072Z,99887.34
2023-05-02T16:13:23.739Z,99889.66
2023-05-02T16:15:54.550Z,99889.63
2023-05-02T16:18:28.118Z,99895.03
2023-05-02T16:20:59.121Z,99898.44
2023-05-02T16:23:27.912Z,99889.91
2023-05-02T16:26:01.689Z,99886.47
2023-05-02T16:28:31.796Z,99894.00
2023-05-02T16:30:59.357Z,99895.94
2023-05-02T16:33:28.048Z,99889.78
2023-05-02T16:36:05.455Z,99880.09
2023-05-02T16:38:33.509Z,99878.97
2023-05-02T16:41:07.302Z,99880.81
2023-05-02T16:43:35.008Z,99874.16
2023-05-02T16:46:07.338Z,99880.97
2023-05-02T16:48:35.773Z,99875.97
2023-05-02T16:51:04.383Z,99879.31
2023-05-02T16:53:32.146Z,99879.25
2023-05-02T16:55:59.985Z,99882.97
2023-05-02T16:58:32.665Z,99881.31
2023-05-02T17:01:01.608Z,99889.66
2023-05-02T17:03:30.368Z,99898.97
2023-05-02T17:06:02.059Z,99899.69
2023-05-02T17:08:30.536Z,99916.00
2023-05-02T17:10:58.134Z,99924.50
2023-05-02T17:13:25.664Z,99920.91
2023-05-02T17:15:53.791Z,99919.22
2023-05-02T17:18:22.447Z,99933.78
2023-05-02T17:20:52.117Z,99934.63
2023-05-02T17:23:19.991Z,99937.75
2023-05-02T17:25:47.830Z,99947.75
2023-05-02T17:28:15.348Z,99952.28
2023-05-02T17:30:44.255Z,99948.50
2023-05-02T17:33:11.897Z,99962.72
2023-05-02T17:35:40.000Z,99969.13
2023-05-02T17:38:09.918Z,99971.66
2023-05-02T17:40:38.276Z,99973.69
2023-05-02T17:43:08.862Z,99974.03
2023-05-02T17:45:36.497Z,99986.91
2023-05-02T17:48:04.675Z,99986.69
2023-05-02T17:50:36.699Z,99983.16
2023-05-02T17:53:05.470Z,99992.97
2023-05-02T17:55:37.235Z,99987.34
2023-05-02T17:58:07.099Z,99990.44
2023-05-02T18:00:34.701Z,99988.47
2023-05-02T18:03:19.479Z,99993.31
2023-05-02T18:05:47.838Z,100001.56
2023-05-02T18:08:18.927Z,99995.84
2023-05-02T18:10:49.265Z,99999.72
2023-05-02T18:13:24.406Z,99996.38
2023-05-02T18:15:59.731Z,100006.75
2023-05-02T18:18:30.256Z,100006.41
2023-05-02T18:20:58.408Z,100017.63
2023-05-02T18:23:26.035Z,100015.47
2023-05-02T18:25:53.695Z,100012.97
2023-05-02T18:28:22.949Z,100016.25
2023-05-02T18:30:52.435Z,100005.16
2023-05-02T18:33:20.791Z,100014.69
2023-05-02T18:35:50.227Z,100013.81
2023-05-02T18:38:20.396Z,100009.81
2023-05-02T18:40:48.697Z,100009.88
2023-05-02T18:43:16.278Z,100016.75
2023-05-02T18:45:47.449Z,100011.16
2023-05-02T18:48:14.929Z,100012.75
2023-05-02T18:50:42.633Z,100015.88
2023-05-02T18:53:13.401Z,100031.22
2023-05-02T18:55:41.254Z,100032.94
2023-05-02T18:58:10.233Z,100037.63
2023-05-02T19:00:39.890Z,100041.03
2023-05-02T19:03:07.978Z,100049.00
2023-05-02T19:05:39.006Z,100044.25
2023-05-02T19:08:08.669Z,100046.78
2023-05-02T19:10:38.151Z,100049.09
2023-05-02T19:13:05.928Z,100051.09
2023-05-02T19:15:38.369Z,100052.75
2023-05-02T19:18:07.809Z,100060.03
2023-05-02T19:20:35.706Z,100053.59
2023-05-02T19:23:19.108Z,100053.19
2023-05-02T19:25:50.224Z,100066.63
2023-05-02T19:28:20.973Z,100063.56
2023-05-02T19:30:50.960Z,100071.06
2023-05-02T19:33:26.772Z,100067.88
2023-05-02T19:36:01.588Z,100068.53
2023-05-02T19:38:32.905Z,100077.94
2023-05-02T19:41:04.325Z,100084.44
2023-05-02T19:43:33.653Z,100077.13
2023-05-02T19:46:02.934Z,100080.53
2023-05-02T19:48:36.201Z,100090.47
2023-05-02T19:51:06.149Z,100079.53
2023-05-02T19:53:36.213Z,100083.31
2023-05-02T19:56:07.069Z,100080.97
2023-05-02T19:58:38.837Z,100089.81
2023-05-02T20:01:08.923Z,100097.78
2023-05-02T20:03:37.017Z,100097.75
2023-05-02T20:06:07.966Z,100098.94
2023-05-02T20:08:39.511Z,100106.31
2023-05-02T20:11:10.623Z,100109.38
2023-05-02T20:13:41.776Z,100100.75
2023-05-02T20:16:10.892Z,100093.47
2023-05-02T20:18:42.447Z,100086.13
2023-05-02T20:21:10.779Z,100079.94
2023-05-02T20:23:43.353Z,100085.38
2023-05-02T20:26:11.493Z,100076.44
2023-05-02T20:28:41.642Z,100074.56
2023-05-02T20:31:09.733Z,100075.03
2023-05-02T20:33:45.157Z,100077.41
2023-05-02T20:36:14.951Z,100078.88
2023-05-02T20:38:53.239Z,100075.22
2023-05-02T20:41:21.441Z,100090.78
2023-05-02T20:43:49.782Z,100094.88
2023-05-02T20:46:17.577Z,100092.19
2023-05-02T20:48:48.328Z,100101.59
2023-05-02T20:51:16.745Z,100099.34
2023-05-02T20:53:44.884Z,100107.53
2023-05-02T20:56:12.424Z,100098.94
2023-05-02T20:58:39.854Z,100105.78
2023-05-02T21:01:07.695Z,100105.00
2023-05-02T21:03:39.277Z,100104.31
2023-05-02T21:06:07.114Z,100105.25
2023-05-02T21:08:35.358Z,100106.50
2023-05-02T21:11:03.228Z,100106.78
2023-05-02T21:13:31.910Z,100109.94
2023-05-02T21:15:59.436Z,100105.47
2023-05-02T21:18:26.943Z,100102.53
2023-05-02T21:20:54.479Z,100114.06
2023-05-02T21:23:21.934Z,100113.56
2023-05-02T21:25:49.367Z,100110.84
2023-05-02T21:28:16.817Z,100106.84
2023-05-02T21:30:44.420Z,100107.75
2023-05-02T21:33:13.367Z,100101.69
2023-05-02T21:35:40.872Z,100111.09
2023-05-02T21:38:08.400Z,100112.81
2023-05-02T21:40:39.396Z,100117.50
2023-05-02T21:43:06.948Z,100110.69
2023-05-02T21:45:34.813Z,100115.16
2023-05-02T21:48:02.704Z,100114.22
2023-05-02T21:50:30.282Z,100107.47
2023-05-02T21:52:57.712Z,100105.56
2023-05-02T21:55:25.350Z,100100.00
2023-05-02T21:57:52.899Z,100098.84
2023-05-02T22:00:20.697Z,100098.69
2023-05-02T22:02:48.402Z,100103.47
2023-05-02T22:05:16.553Z,100110.28
2023-05-02T22:07:44.027Z,100109.53
2023-05-02T22:10:11.990Z,100093.56
2023-05-02T22:12:39.560Z,100108.47
2023-05-02T22:15:09.699Z,100100.09
2023-05-02T22:17:37.453Z,100106.91
2023-05-02T22:20:08.241Z,100105.66
2023-05-02T22:22:35.838Z,100112.16
2023-05-02T22:25:03.367Z,100103.78
2023-05-02T22:27:30.966Z,100109.53
2023-05-02T22:29:58.556Z,100115.41
2023-05-02T22:32:26.944Z,100117.00
2023-05-02T22:34:54.512Z,100107.53
2023-05-02T22:37:21.981Z,100103.50
2023-05-02T22:39:49.631Z,100095.00
2023-05-02T22:42:17.316Z,100095.28
2023-05-02T22:44:53.517Z,100094.06
2023-05-02T22:47:22.213Z,100094.66
2023-05-02T22:49:51.073Z,100091.28
2023-05-02T22:52:18.637Z,100104.47
2023-05-02T22:54:46.168Z,100107.56
2023-05-02T22:57:13.634Z,100102.88
2023-05-02T22:59:41.248Z,100096.38
2023-05-02T23:02:12.190Z,100094.81
2023-05-02T23:04:39.648Z,100088.94
2023-05-02T23:07:07.585Z,100097.91
2023-05-02T23:09:35.056Z,100099.66
2023-05-02T23:12:03.902Z,100097.31
2023-05-02T23:14:31.413Z,100086.59
2023-05-02T23:17:01.078Z,100087.06
2023-05-02T23:19:28.793Z,100090.63
2023-05-02T23:21:56.850Z,100094.81
2023-05-02T23:24:24.378Z,100099.47
2023-05-02T23:26:52.258Z,100097.50
2023-05-02T23:29:19.984Z,100089.25
2023-05-02T23:31:54.543Z,100089.44
2023-05-02T23:34:22.736Z,100094.53
2023-05-02T23:36:51.853Z,100103.19
2023-05-02T23:39:19.584Z,100113.28
2023-05-02T23:41:47.161Z,100116.25
2023-05-02T23:44:14.637Z,100113.28
2023-05-02T23:46:42.134Z,100121.66
2023-05-02T23:49:09.863Z,100107.56
2023-05-02T23:51:37.811Z,100105.97
2023-05-02T23:54:05.416Z,100114.84
2023-05-02T23:56:32.860Z,100116.88
2023-05-02T23:59:00.269Z,100117.03
